createdAt,value
2019-02-19T00:01:04.446Z,30.20
2019-02-19T00:03:32.430Z,27.17
2019-02-19T00:06:00.157Z,28.03
2019-02-19T00:08:28.153Z,28.70
2019-02-19T00:10:55.816Z,30.77
2019-02-19T00:13:23.697Z,26.73
2019-02-19T00:15:51.782Z,29.43
2019-02-19T00:18:19.281Z,27.43
2019-02-19T00:20:46.769Z,31.13
2019-02-19T00:23:16.274Z,31.67
2019-02-19T00:25:44.099Z,26.80
2019-02-19T00:28:11.912Z,30.33
2019-02-19T00:30:40.044Z,29.23
2019-02-19T00:33:07.909Z,26.93
2019-02-19T00:35:35.869Z,28.53
2019-02-19T00:38:03.609Z,32.73
2019-02-19T00:40:31.428Z,27.97
2019-02-19T00:42:59.286Z,29.33
2019-02-19T00:45:27.480Z,30.77
2019-02-19T00:47:55.361Z,29.27
2019-02-19T00:50:23.058Z,32.80
2019-02-19T00:52:50.553Z,31.70
2019-02-19T00:55:18.433Z,32.67
2019-02-19T00:57:45.825Z,32.60
2019-02-19T01:00:15.763Z,31.73
2019-02-19T01:02:43.536Z,29.93
2019-02-19T01:05:11.428Z,28.93
2019-02-19T01:07:39.400Z,28.93
2019-02-19T01:10:07.282Z,27.93
2019-02-19T01:12:35.309Z,28.70
2019-02-19T01:15:03.585Z,33.33
2019-02-19T01:17:31.018Z,33.23
2019-02-19T01:19:59.001Z,31.33
2019-02-19T01:22:26.728Z,30.40
2019-02-19T01:24:54.664Z,31.50
2019-02-19T01:27:22.627Z,30.57
2019-02-19T01:29:50.569Z,32.13
2019-02-19T01:32:18.988Z,32.80
2019-02-19T01:34:46.808Z,34.43
2019-02-19T01:37:14.790Z,31.77
2019-02-19T01:39:42.748Z,36.60
2019-02-19T01:42:10.619Z,35.80
2019-02-19T01:44:38.794Z,34.03
2019-02-19T01:47:06.612Z,30.57
2019-02-19T01:49:34.671Z,34.43
2019-02-19T01:52:05.148Z,32.30
2019-02-19T01:54:32.691Z,31.00
2019-02-19T01:57:00.271Z,28.57
2019-02-19T01:59:28.109Z,31.90
2019-02-19T02:01:55.914Z,33.07
2019-02-19T02:04:23.612Z,31.83
2019-02-19T02:06:51.408Z,38.07
2019-02-19T02:09:19.580Z,33.73
2019-02-19T02:11:47.067Z,33.30
2019-02-19T02:14:15.017Z,30.43
2019-02-19T02:16:42.888Z,34.67
2019-02-19T02:19:10.421Z,30.33
2019-02-19T02:21:38.687Z,29.30
2019-02-19T02:24:06.228Z,31.43
2019-02-19T02:26:34.097Z,30.20
2019-02-19T02:29:01.688Z,32.67
2019-02-19T02:31:29.373Z,33.10
2019-02-19T02:33:57.279Z,33.87
2019-02-19T02:36:25.483Z,34.53
2019-02-19T02:38:53.517Z,34.93
2019-02-19T02:41:21.279Z,32.83
2019-02-19T02:43:49.210Z,37.37
2019-02-19T02:46:17.113Z,35.93
2019-02-19T02:48:45.056Z,35.83
2019-02-19T02:51:14.404Z,34.77
2019-02-19T02:53:41.943Z,43.30
2019-02-19T02:56:09.932Z,34.17
2019-02-19T02:58:38.641Z,36.20
2019-02-19T03:01:06.651Z,36.83
2019-02-19T03:03:34.439Z,36.17
2019-02-19T03:06:20.867Z,35.80
2019-02-19T03:08:48.751Z,42.50
2019-02-19T03:11:16.871Z,38.10
2019-02-19T03:13:45.019Z,38.63
2019-02-19T03:16:13.138Z,37.73
2019-02-19T03:18:41.311Z,39.03
2019-02-19T03:21:09.013Z,40.07
2019-02-19T03:23:37.233Z,39.30
2019-02-19T03:26:05.131Z,38.03
2019-02-19T03:28:33.063Z,42.07
2019-02-19T03:31:00.598Z,38.60
2019-02-19T03:33:28.317Z,43.40
2019-02-19T03:35:55.805Z,44.87
2019-02-19T03:38:23.178Z,41.33
2019-02-19T03:40:51.161Z,42.23
2019-02-19T03:43:19.007Z,43.87
2019-02-19T03:45:46.558Z,39.70
2019-02-19T03:48:14.620Z,41.73
2019-02-19T03:51:22.633Z,40.70
2019-02-19T03:53:50.941Z,40.83
2019-02-19T03:56:18.812Z,40.47
2019-02-19T03:58:46.525Z,42.23
2019-02-19T04:01:14.395Z,45.67
2019-02-19T04:03:41.963Z,41.60
2019-02-19T04:06:09.993Z,47.03
2019-02-19T04:08:37.895Z,45.10
2019-02-19T04:11:05.807Z,44.27
2019-02-19T04:13:33.427Z,45.50
2019-02-19T04:16:01.317Z,47.30
2019-02-19T04:18:29.150Z,45.10
2019-02-19T04:20:56.641Z,46.87
2019-02-19T04:23:24.128Z,45.50
2019-02-19T04:25:52.109Z,46.50
2019-02-19T04:28:20.188Z,49.03
2019-02-19T04:30:47.986Z,53.87
2019-02-19T04:33:15.893Z,44.27
2019-02-19T04:35:43.551Z,47.10
2019-02-19T04:38:11.579Z,51.23
2019-02-19T04:40:39.545Z,52.87
2019-02-19T04:43:07.777Z,52.27
2019-02-19T04:45:35.335Z,51.00
2019-02-19T04:48:03.132Z,50.60
2019-02-19T04:50:31.012Z,56.60
2019-02-19T04:52:59.053Z,54.07
2019-02-19T04:55:27.314Z,53.37
2019-02-19T04:57:55.416Z,51.70
2019-02-19T05:00:23.619Z,56.67
2019-02-19T05:02:52.161Z,52.90
2019-02-19T05:05:22.363Z,58.77
2019-02-19T05:07:50.212Z,51.40
2019-02-19T05:10:18.684Z,54.97
2019-02-19T05:12:50.049Z,51.83
2019-02-19T05:15:18.126Z,60.10
2019-02-19T05:17:46.165Z,54.60
2019-02-19T05:20:14.381Z,56.17
2019-02-19T05:22:44.853Z,57.43
2019-02-19T05:25:13.120Z,50.57
2019-02-19T05:27:42.196Z,57.43
2019-02-19T05:30:11.552Z,55.53
2019-02-19T05:32:39.977Z,50.13
2019-02-19T05:35:08.780Z,57.13
2019-02-19T05:37:41.136Z,53.67
2019-02-19T05:40:09.320Z,53.37
2019-02-19T05:42:37.906Z,49.67
2019-02-19T05:45:06.037Z,53.03
2019-02-19T05:47:37.189Z,55.83
2019-02-19T05:50:05.789Z,52.30
2019-02-19T05:52:41.761Z,57.27
2019-02-19T05:55:09.936Z,51.80
2019-02-19T06:00:43.205Z,50.07
2019-02-19T06:03:11.599Z,58.10
2019-02-19T06:05:39.908Z,54.33
2019-02-19T06:08:09.378Z,56.17
2019-02-19T06:10:37.804Z,52.50
2019-02-19T06:13:05.722Z,54.10
2019-02-19T06:15:34.310Z,60.50
2019-02-19T06:18:03.213Z,55.47
2019-02-19T06:20:32.864Z,55.20
2019-02-19T06:23:00.619Z,53.03
2019-02-19T06:25:29.331Z,57.70
2019-02-19T06:27:57.939Z,49.37
2019-02-19T06:30:29.142Z,56.83
2019-02-19T06:32:58.481Z,57.37
2019-02-19T06:35:26.963Z,55.67
2019-02-19T06:37:59.640Z,51.07
2019-02-19T06:40:30.027Z,54.93
2019-02-19T06:42:58.499Z,53.80
2019-02-19T06:45:41.033Z,46.50
2019-02-19T06:48:09.945Z,47.90
2019-02-19T06:50:38.332Z,51.73
2019-02-19T06:53:09.418Z,46.73
2019-02-19T06:55:41.501Z,51.43
2019-02-19T06:58:13.578Z,47.67
2019-02-19T07:00:44.938Z,45.37
2019-02-19T07:03:51.591Z,49.23
2019-02-19T07:12:46.448Z,42.17
2019-02-19T07:15:17.866Z,41.43
2019-02-19T07:17:46.464Z,41.00
2019-02-19T07:20:16.209Z,38.43
2019-02-19T07:22:46.538Z,34.33
2019-02-19T07:25:15.630Z,41.83
2019-02-19T07:27:49.875Z,34.30
2019-02-19T07:30:17.676Z,35.30
2019-02-19T07:32:49.732Z,37.90
2019-02-19T07:35:19.219Z,42.77
2019-02-19T07:37:47.950Z,43.73
2019-02-19T07:40:17.473Z,37.00
2019-02-19T07:42:58.376Z,42.20
2019-02-19T07:45:27.601Z,43.37
2019-02-19T07:47:56.950Z,38.07
2019-02-19T07:50:25.776Z,41.13
2019-02-19T07:52:57.893Z,34.33
2019-02-19T07:55:30.304Z,40.37
2019-02-19T07:58:00.252Z,37.53
2019-02-19T08:00:28.488Z,38.30
2019-02-19T08:02:58.242Z,35.53
2019-02-19T08:05:30.019Z,40.27
2019-02-19T08:07:58.040Z,37.00
2019-02-19T08:10:31.321Z,31.87
2019-02-19T08:12:59.936Z,35.37
2019-02-19T08:15:28.763Z,30.87
2019-02-19T08:17:56.975Z,33.37
2019-02-19T08:20:26.951Z,34.80
2019-02-19T08:22:55.880Z,33.97
2019-02-19T08:25:24.778Z,32.10
2019-02-19T08:27:52.810Z,31.83
2019-02-19T08:30:21.385Z,27.53
2019-02-19T08:32:49.457Z,30.47
2019-02-19T08:35:18.454Z,29.20
2019-02-19T08:37:58.818Z,31.93
2019-02-19T08:40:32.876Z,31.23
2019-02-19T08:43:03.771Z,32.20
2019-02-19T08:45:32.254Z,28.63
2019-02-19T08:48:01.146Z,32.40
2019-02-19T08:50:29.893Z,28.90
2019-02-19T08:52:58.173Z,30.40
2019-02-19T08:55:28.279Z,29.73
2019-02-19T08:57:58.657Z,27.93
2019-02-19T09:00:27.942Z,26.37
2019-02-19T09:02:58.202Z,27.63
2019-02-19T09:05:31.835Z,27.43
2019-02-19T09:08:00.517Z,25.53
2019-02-19T09:10:28.718Z,28.10
2019-02-19T09:12:59.253Z,25.67
2019-02-19T09:15:30.181Z,28.27
2019-02-19T09:18:00.122Z,25.50
2019-02-19T09:20:29.829Z,24.13
2019-02-19T09:23:11.168Z,26.63
2019-02-19T09:25:40.988Z,25.67
2019-02-19T09:28:10.152Z,27.73
2019-02-19T09:34:12.143Z,27.43
2019-02-19T09:36:40.397Z,25.80
2019-02-19T09:39:09.581Z,24.00
2019-02-19T09:41:38.088Z,24.40
2019-02-19T09:44:07.513Z,25.37
2019-02-19T09:46:38.256Z,25.90
2019-02-19T09:49:07.538Z,25.83
2019-02-19T09:51:35.683Z,23.30
2019-02-19T09:54:04.630Z,24.83
2019-02-19T09:56:33.600Z,23.93
2019-02-19T09:59:02.043Z,27.03
2019-02-19T10:01:30.963Z,25.60
2019-02-19T10:04:00.979Z,23.30
2019-02-19T10:06:33.528Z,23.23
2019-02-19T10:09:01.991Z,19.43
2019-02-19T10:11:34.441Z,24.03
2019-02-19T10:14:04.252Z,22.63
2019-02-19T10:16:41.726Z,22.57
2019-02-19T10:19:06.865Z,23.53
2019-02-19T10:21:35.884Z,25.37
2019-02-19T10:24:05.106Z,23.17
2019-02-19T10:26:36.382Z,23.43
2019-02-19T10:29:04.524Z,24.13
2019-02-19T10:31:48.555Z,25.20
2019-02-19T10:34:18.035Z,21.97
2019-02-19T10:36:49.569Z,27.03
2019-02-19T10:39:18.593Z,21.33
2019-02-19T10:41:47.085Z,21.47
2019-02-19T10:44:35.159Z,19.17
2019-02-19T10:47:05.164Z,21.40
2019-02-19T10:49:34.774Z,22.67
2019-02-19T10:52:03.494Z,18.03
2019-02-19T10:54:32.060Z,18.40
2019-02-19T10:57:06.914Z,19.87
2019-02-19T10:59:35.697Z,18.13
2019-02-19T11:02:03.968Z,18.87
2019-02-19T11:04:35.770Z,18.43
2019-02-19T11:07:04.584Z,17.07
2019-02-19T11:09:32.894Z,23.10
2019-02-19T11:12:01.249Z,18.47
2019-02-19T11:14:33.180Z,18.80
2019-02-19T11:17:36.371Z,20.97
2019-02-19T11:20:13.610Z,18.47
2019-02-19T11:22:44.510Z,18.97
2019-02-19T11:25:13.098Z,18.67
2019-02-19T11:27:42.671Z,21.00
2019-02-19T11:30:16.839Z,19.17
2019-02-19T11:32:45.313Z,17.07
2019-02-19T11:35:38.162Z,22.10
2019-02-19T11:38:15.665Z,20.67
2019-02-19T11:40:46.799Z,21.17
2019-02-19T11:43:17.471Z,19.97
2019-02-19T11:45:47.626Z,20.30
2019-02-19T11:48:16.224Z,23.60
2019-02-19T11:54:18.188Z,20.20
2019-02-19T11:56:47.693Z,18.20
2019-02-19T11:59:18.919Z,17.30
2019-02-19T12:01:48.876Z,23.37
2019-02-19T12:04:19.768Z,20.20
2019-02-19T12:06:51.584Z,17.57
2019-02-19T12:09:52.819Z,22.10
2019-02-19T12:12:02.135Z,18.53
2019-02-19T12:14:43.780Z,17.07
2019-02-19T12:17:10.353Z,19.40
2019-02-19T12:23:00.101Z,22.77
2019-02-19T12:25:37.614Z,21.17
2019-02-19T12:28:26.572Z,16.40
2019-02-19T12:30:56.062Z,22.23
2019-02-19T12:33:26.060Z,22.77
2019-02-19T12:35:54.380Z,20.70
2019-02-19T12:38:22.457Z,18.00
2019-02-19T12:41:00.171Z,23.60
2019-02-19T12:43:27.909Z,22.20
2019-02-19T12:45:57.052Z,21.00
2019-02-19T12:51:55.872Z,17.63
2019-02-19T12:54:28.451Z,19.03
2019-02-19T12:56:58.387Z,23.20
2019-02-19T12:59:30.264Z,16.93
2019-02-19T13:01:59.616Z,21.37
2019-02-19T13:04:28.361Z,18.63
2019-02-19T13:06:58.043Z,20.73
2019-02-19T13:09:26.957Z,19.53
2019-02-19T13:11:55.812Z,22.90
2019-02-19T13:14:28.645Z,19.80
2019-02-19T13:16:59.197Z,25.23
2019-02-19T13:19:27.219Z,22.23
2019-02-19T13:21:56.842Z,22.00
2019-02-19T13:24:24.802Z,18.53
2019-02-19T13:26:53.214Z,20.13
2019-02-19T13:29:23.327Z,18.77
2019-02-19T13:31:51.404Z,19.60
2019-02-19T13:34:21.014Z,17.33
2019-02-19T13:36:49.031Z,20.93
2019-02-19T13:39:18.322Z,22.20
2019-02-19T13:41:46.758Z,21.47
2019-02-19T13:44:27.033Z,15.00
2019-02-19T13:46:54.791Z,15.63
2019-02-19T13:49:22.396Z,20.03
2019-02-19T13:51:52.278Z,15.37
2019-02-19T13:54:28.608Z,20.70
2019-02-19T13:56:58.265Z,18.60
2019-02-19T13:59:49.628Z,14.93
2019-02-19T14:02:18.377Z,15.33
2019-02-19T14:04:46.689Z,16.30
2019-02-19T14:07:15.363Z,15.97
2019-02-19T14:09:55.701Z,13.80
2019-02-19T14:12:26.351Z,15.43
2019-02-19T14:14:59.904Z,16.00
2019-02-19T14:17:44.439Z,17.17
2019-02-19T14:20:34.736Z,16.50
2019-02-19T14:23:50.624Z,17.57
2019-02-19T14:26:44.542Z,14.00
2019-02-19T14:29:42.082Z,14.60
2019-02-19T14:32:28.787Z,14.23
2019-02-19T14:35:18.577Z,22.13
2019-02-19T14:38:06.271Z,10.80
2019-02-19T14:40:56.714Z,14.17
2019-02-19T14:43:46.169Z,11.30
2019-02-19T14:46:34.886Z,15.53
2019-02-19T14:49:37.313Z,9.63
2019-02-19T14:52:14.709Z,12.70
2019-02-19T14:55:13.159Z,11.00
2019-02-19T14:58:13.152Z,11.17
2019-02-19T15:00:59.294Z,18.40
2019-02-19T15:04:00.664Z,12.47
2019-02-19T15:07:00.307Z,11.77
2019-02-19T15:10:03.239Z,15.57
2019-02-19T15:12:50.172Z,12.83
2019-02-19T15:15:43.446Z,14.17
2019-02-19T15:18:29.647Z,12.67
2019-02-19T15:21:17.141Z,15.10
2019-02-19T15:24:02.796Z,14.90
2019-02-19T15:27:06.818Z,15.57
2019-02-19T15:29:54.657Z,14.63
2019-02-19T15:32:47.120Z,8.47
2019-02-19T15:35:50.197Z,9.53
2019-02-19T15:38:48.249Z,10.17
2019-02-19T15:41:53.734Z,13.40
2019-02-19T15:44:32.727Z,12.70
2019-02-19T15:47:29.729Z,11.57
2019-02-19T15:50:26.981Z,9.80
2019-02-19T15:53:10.982Z,7.53
2019-02-19T15:55:52.302Z,13.57
2019-02-19T15:58:38.595Z,13.30
2019-02-19T16:01:34.919Z,13.00
2019-02-19T16:04:07.167Z,12.43
2019-02-19T16:06:50.576Z,17.10
2019-02-19T16:09:46.512Z,15.00
2019-02-19T16:24:05.930Z,14.17
2019-02-19T16:27:31.946Z,13.87
2019-02-19T16:30:38.920Z,13.33
2019-02-19T16:41:26.640Z,15.43
2019-02-19T16:44:43.273Z,12.43
2019-02-19T17:39:38.658Z,12.53
2019-02-19T17:42:34.296Z,18.03
2019-02-19T17:45:22.395Z,12.93
2019-02-19T17:48:28.460Z,23.73
2019-02-19T17:51:34.612Z,17.47
2019-02-19T17:54:25.036Z,20.13
2019-02-19T17:57:40.229Z,17.27
2019-02-19T18:04:35.666Z,19.47
2019-02-19T18:07:23.611Z,12.03
2019-02-19T18:10:14.409Z,18.17
2019-02-19T18:13:13.988Z,20.03
2019-02-19T18:23:49.867Z,18.10
2019-02-19T18:26:18.136Z,19.23
2019-02-19T18:30:03.662Z,20.63
2019-02-19T18:36:18.381Z,13.97
2019-02-19T18:38:48.407Z,16.50
2019-02-19T18:44:44.999Z,16.53
2019-02-19T18:50:07.077Z,18.20
2019-02-19T18:53:19.928Z,21.30
2019-02-19T18:55:48.227Z,19.37
2019-02-19T18:58:16.819Z,21.13
2019-02-19T19:01:12.175Z,21.00
2019-02-19T19:03:40.500Z,24.03
2019-02-19T19:06:09.972Z,20.97
2019-02-19T19:08:38.122Z,20.97
2019-02-19T19:11:06.186Z,21.77
2019-02-19T19:13:34.931Z,23.43
2019-02-19T19:16:25.775Z,18.70
2019-02-19T19:18:58.427Z,22.57
2019-02-19T19:21:28.008Z,24.40
2019-02-19T19:23:56.355Z,19.43
2019-02-19T19:26:28.434Z,21.83
2019-02-19T19:29:02.057Z,22.57
2019-02-19T19:31:33.401Z,19.87
2019-02-19T19:33:59.892Z,25.13
2019-02-19T19:36:27.808Z,23.60
2019-02-19T19:38:56.128Z,20.43
2019-02-19T19:41:23.867Z,21.33
2019-02-19T19:43:52.849Z,21.73
2019-02-19T19:46:21.929Z,22.23
2019-02-19T19:48:50.227Z,21.40
2019-02-19T19:51:18.210Z,21.23
2019-02-19T19:53:46.150Z,18.57
2019-02-19T19:56:15.083Z,28.00
2019-02-19T19:58:43.565Z,23.40
2019-02-19T20:01:36.256Z,25.77
2019-02-19T20:03:55.406Z,23.57
2019-02-19T20:06:24.131Z,24.77
2019-02-19T20:08:52.034Z,21.30
2019-02-19T20:11:20.510Z,21.80
2019-02-19T20:13:50.813Z,28.53
2019-02-19T20:16:19.053Z,22.33
2019-02-19T20:18:46.994Z,23.70
2019-02-19T20:21:14.882Z,26.67
2019-02-19T20:32:19.816Z,20.20
2019-02-19T20:34:47.462Z,29.17
2019-02-19T20:37:17.130Z,26.47
2019-02-19T20:39:45.330Z,21.40
2019-02-19T20:42:52.784Z,24.67
2019-02-19T20:45:20.734Z,33.13
2019-02-19T20:47:49.881Z,24.47
2019-02-19T20:50:21.077Z,31.23
2019-02-19T20:52:49.765Z,31.10
2019-02-19T20:55:19.505Z,22.50
2019-02-19T20:57:49.906Z,27.83
2019-02-19T21:00:18.146Z,30.97
2019-02-19T21:02:48.517Z,29.07
2019-02-19T21:05:16.567Z,27.40
2019-02-19T21:07:45.002Z,29.80
2019-02-19T21:10:24.098Z,31.30
2019-02-19T21:12:51.923Z,22.80
2019-02-19T21:20:10.180Z,27.97
2019-02-19T21:26:08.791Z,31.47
2019-02-19T21:39:21.571Z,26.93
2019-02-19T21:41:52.991Z,30.07
2019-02-19T21:44:22.237Z,33.70
2019-02-19T21:46:50.678Z,31.33
2019-02-19T21:49:18.706Z,30.17
2019-02-19T21:51:53.931Z,33.03
2019-02-19T21:54:17.894Z,35.43
2019-02-19T21:56:46.000Z,30.60
2019-02-19T21:59:14.764Z,25.53
2019-02-19T22:01:42.836Z,34.50
2019-02-19T22:21:10.822Z,30.27
2019-02-19T22:23:39.986Z,30.80
2019-02-19T22:26:10.191Z,32.70
2019-02-19T22:28:37.967Z,39.93
2019-02-19T22:31:07.191Z,28.87
2019-02-19T22:33:35.938Z,30.13
2019-02-19T22:36:27.230Z,31.37
2019-02-19T22:38:55.302Z,33.03
2019-02-19T22:41:24.080Z,33.10
2019-02-19T22:43:54.939Z,32.80
2019-02-19T22:46:23.194Z,28.43
2019-02-19T22:48:51.101Z,30.43
2019-02-19T22:51:18.814Z,31.77
2019-02-19T22:53:53.651Z,28.13
2019-02-19T22:56:25.112Z,33.20
2019-02-19T22:58:53.554Z,32.93
2019-02-19T23:01:30.815Z,25.07
2019-02-19T23:03:59.348Z,31.47
2019-02-19T23:06:27.358Z,28.93
2019-02-19T23:08:56.163Z,24.67
2019-02-19T23:11:34.248Z,30.00
2019-02-19T23:14:02.763Z,27.70
2019-02-19T23:16:30.769Z,26.93
2019-02-19T23:18:58.403Z,28.37
2019-02-19T23:21:26.407Z,31.20
2019-02-19T23:23:54.158Z,32.77
2019-02-19T23:26:22.201Z,28.17
2019-02-19T23:28:50.235Z,27.87
2019-02-19T23:31:18.751Z,28.20
2019-02-19T23:33:46.877Z,31.10
2019-02-19T23:36:19.911Z,30.03
2019-02-19T23:38:48.527Z,30.83
2019-02-19T23:41:16.810Z,30.60
2019-02-19T23:43:44.951Z,31.43
2019-02-19T23:46:13.084Z,26.97
2019-02-19T23:48:41.685Z,30.77
2019-02-19T23:51:09.445Z,31.27
2019-02-19T23:53:37.273Z,28.43
2019-02-19T23:56:07.740Z,29.47
2019-02-19T23:58:35.850Z,35.60
